createdAt,value
2017-11-16T00:01:41.674Z,18.87
2017-11-16T00:04:09.135Z,19.97
2017-11-16T00:06:36.638Z,20.50
2017-11-16T00:09:04.101Z,22.10
2017-11-16T00:11:31.552Z,21.50
2017-11-16T00:13:59.039Z,21.60
2017-11-16T00:16:26.498Z,24.80
2017-11-16T00:18:53.955Z,23.20
2017-11-16T00:21:21.431Z,20.23
2017-11-16T00:23:48.892Z,19.30
2017-11-16T00:26:17.227Z,20.10
2017-11-16T00:28:44.710Z,19.07
2017-11-16T00:31:12.199Z,20.50
2017-11-16T00:33:39.659Z,20.10
2017-11-16T00:36:07.119Z,18.50
2017-11-16T00:38:34.608Z,19.07
2017-11-16T00:41:02.833Z,17.40
2017-11-16T00:43:30.323Z,18.00
2017-11-16T00:45:57.782Z,17.57
2017-11-16T00:48:25.262Z,17.20
2017-11-16T00:50:52.748Z,17.03
2017-11-16T00:53:20.584Z,16.42
2017-11-16T00:55:48.159Z,17.50
2017-11-16T00:58:15.610Z,16.97
2017-11-16T01:00:43.093Z,17.30
2017-11-16T01:03:10.554Z,17.10
2017-11-16T01:05:38.031Z,16.97
2017-11-16T01:08:05.511Z,16.97
2017-11-16T01:10:33.014Z,18.00
2017-11-16T01:13:00.485Z,16.57
2017-11-16T01:15:27.967Z,16.37
2017-11-16T01:17:55.427Z,16.50
2017-11-16T01:20:22.891Z,18.70
2017-11-16T01:22:51.789Z,17.45
2017-11-16T01:25:19.269Z,16.70
2017-11-16T01:27:47.503Z,17.17
2017-11-16T01:30:15.004Z,19.00
2017-11-16T01:32:43.227Z,16.67
2017-11-16T01:35:10.714Z,18.17
2017-11-16T01:37:38.199Z,16.43
2017-11-16T01:40:06.443Z,16.40
2017-11-16T01:42:33.911Z,17.47
2017-11-16T01:45:01.386Z,18.57
2017-11-16T01:47:28.843Z,18.17
2017-11-16T01:49:56.324Z,17.00
2017-11-16T01:52:23.823Z,15.90
2017-11-16T01:54:51.462Z,15.80
2017-11-16T01:57:18.921Z,17.43
2017-11-16T01:59:46.386Z,15.90
2017-11-16T02:02:25.730Z,17.47
2017-11-16T02:04:53.214Z,16.43
2017-11-16T02:07:21.594Z,17.77
2017-11-16T02:09:49.081Z,18.13
2017-11-16T02:12:18.029Z,17.63
2017-11-16T02:14:45.522Z,18.03
2017-11-16T02:17:13.810Z,18.10
2017-11-16T02:19:42.042Z,18.17
2017-11-16T02:22:09.526Z,20.27
2017-11-16T02:24:37.783Z,16.20
2017-11-16T02:27:05.248Z,19.30
2017-11-16T02:29:32.737Z,18.00
2017-11-16T02:32:00.963Z,19.43
2017-11-16T02:34:28.439Z,19.40
2017-11-16T02:36:55.919Z,21.47
2017-11-16T02:39:23.417Z,21.10
2017-11-16T02:41:50.906Z,20.20
2017-11-16T02:44:18.370Z,20.57
2017-11-16T02:46:45.854Z,20.13
2017-11-16T02:49:13.331Z,21.13
2017-11-16T02:51:40.839Z,22.23
2017-11-16T02:54:09.074Z,23.80
2017-11-16T02:56:36.563Z,22.77
2017-11-16T02:59:04.049Z,24.77
2017-11-16T03:01:31.539Z,24.17
2017-11-16T03:03:59.819Z,23.90
2017-11-16T03:06:28.047Z,21.53
2017-11-16T03:08:55.510Z,22.20
2017-11-16T03:11:23.001Z,22.90
2017-11-16T03:13:51.223Z,24.30
2017-11-16T03:16:18.799Z,25.50
2017-11-16T03:18:46.278Z,26.97
2017-11-16T03:21:13.742Z,23.50
2017-11-16T03:23:42.019Z,23.93
2017-11-16T03:26:09.479Z,22.50
2017-11-16T03:28:36.966Z,19.13
2017-11-16T03:31:04.454Z,22.50
2017-11-16T03:33:31.936Z,24.00
2017-11-16T03:35:59.387Z,21.70
2017-11-16T03:38:26.874Z,21.17
2017-11-16T03:40:55.102Z,20.43
2017-11-16T03:43:23.794Z,21.40
2017-11-16T03:45:51.318Z,21.67
2017-11-16T03:48:18.778Z,20.83
2017-11-16T03:50:46.270Z,18.90
2017-11-16T03:53:13.727Z,18.47
2017-11-16T03:55:41.182Z,20.10
2017-11-16T03:58:08.662Z,20.07
2017-11-16T04:00:36.139Z,17.60
2017-11-16T04:03:03.626Z,16.50
2017-11-16T04:05:31.083Z,16.20
2017-11-16T04:07:58.543Z,14.20
2017-11-16T04:10:26.076Z,15.07
2017-11-16T04:12:54.310Z,15.85
2017-11-16T04:15:21.824Z,13.77
2017-11-16T04:17:50.074Z,13.43
2017-11-16T04:20:17.575Z,14.17
2017-11-16T04:22:45.075Z,13.30
2017-11-16T04:25:12.544Z,12.83
2017-11-16T04:27:40.524Z,11.70
2017-11-16T04:30:08.297Z,11.50
2017-11-16T04:32:35.783Z,10.87
2017-11-16T04:35:03.239Z,11.33
2017-11-16T04:37:30.988Z,11.73
2017-11-16T04:39:59.225Z,10.37
2017-11-16T04:42:26.686Z,9.83
2017-11-16T04:44:54.186Z,8.90
2017-11-16T04:47:22.431Z,9.30
2017-11-16T04:49:49.891Z,8.57
2017-11-16T04:52:18.210Z,9.20
2017-11-16T04:54:45.675Z,9.00
2017-11-16T04:57:13.150Z,9.23
2017-11-16T04:59:40.642Z,8.20
2017-11-16T05:02:08.101Z,8.43
2017-11-16T05:04:35.559Z,8.70
2017-11-16T05:09:36.879Z,9.07
2017-11-16T05:12:04.351Z,10.33
2017-11-16T05:14:31.842Z,8.20
2017-11-16T05:16:59.325Z,9.27
2017-11-16T05:19:27.559Z,10.30
2017-11-16T05:21:55.051Z,10.63
2017-11-16T05:24:22.514Z,11.37
2017-11-16T05:26:50.747Z,11.80
2017-11-16T05:29:18.247Z,9.60
2017-11-16T05:31:45.708Z,11.80
2017-11-16T05:34:13.162Z,9.43
2017-11-16T05:36:40.766Z,9.40
2017-11-16T05:39:08.236Z,8.93
2017-11-16T05:41:35.712Z,7.77
2017-11-16T05:44:03.191Z,9.47
2017-11-16T05:46:31.427Z,8.17
2017-11-16T05:48:58.896Z,9.50
2017-11-16T05:51:26.392Z,9.27
2017-11-16T05:53:53.848Z,8.43
2017-11-16T05:56:21.298Z,9.97
2017-11-16T05:58:48.775Z,11.73
2017-11-16T06:01:17.031Z,10.90
2017-11-16T06:03:44.498Z,10.90
2017-11-16T06:06:11.983Z,11.93
2017-11-16T06:08:39.487Z,11.37
2017-11-16T06:11:06.955Z,12.50
2017-11-16T06:13:34.433Z,10.07
2017-11-16T06:16:01.922Z,11.27
2017-11-16T06:18:29.411Z,11.27
2017-11-16T06:20:56.877Z,10.13
2017-11-16T06:23:24.335Z,8.13
2017-11-16T06:25:52.077Z,10.27
2017-11-16T06:28:19.843Z,10.10
2017-11-16T06:30:47.322Z,11.80
2017-11-16T06:33:14.814Z,10.20
2017-11-16T06:35:42.307Z,10.03
2017-11-16T06:38:09.773Z,8.30
2017-11-16T06:40:37.272Z,7.43
2017-11-16T06:43:04.743Z,8.13
2017-11-16T06:45:32.197Z,8.87
2017-11-16T06:47:59.688Z,8.80
2017-11-16T06:50:27.155Z,8.80
2017-11-16T06:52:54.607Z,8.37
2017-11-16T06:55:22.088Z,8.63
2017-11-16T06:57:49.581Z,9.10
2017-11-16T07:00:17.030Z,8.50
2017-11-16T07:02:44.519Z,7.10
2017-11-16T07:05:12.796Z,8.63
2017-11-16T07:07:41.049Z,9.50
2017-11-16T07:10:08.569Z,7.33
2017-11-16T07:12:36.154Z,8.77
2017-11-16T07:15:03.603Z,7.10
2017-11-16T07:17:31.063Z,7.10
2017-11-16T07:19:59.540Z,7.27
2017-11-16T07:22:27.266Z,8.77
2017-11-16T07:24:55.003Z,9.13
2017-11-16T07:27:22.797Z,8.90
2017-11-16T07:29:50.471Z,10.20
2017-11-16T07:32:18.194Z,10.10
2017-11-16T07:34:45.985Z,9.43
2017-11-16T07:37:13.647Z,9.30
2017-11-16T07:39:42.206Z,9.57
2017-11-16T07:42:09.989Z,9.97
2017-11-16T07:44:38.591Z,12.50
2017-11-16T07:47:06.361Z,12.97
2017-11-16T07:49:34.760Z,14.17
2017-11-16T07:52:02.510Z,12.57
2017-11-16T07:54:30.282Z,11.50
2017-11-16T07:56:58.069Z,11.33
2017-11-16T07:59:25.791Z,11.23
2017-11-16T08:01:53.472Z,12.27
2017-11-16T08:04:21.240Z,12.37
2017-11-16T08:06:48.947Z,12.77
2017-11-16T08:09:16.659Z,11.60
2017-11-16T08:11:44.297Z,13.00
2017-11-16T08:14:12.004Z,11.90
2017-11-16T08:16:39.697Z,14.07
2017-11-16T08:19:07.438Z,10.87
2017-11-16T08:21:35.140Z,10.40
2017-11-16T08:24:02.894Z,10.43
2017-11-16T08:26:30.607Z,9.10
2017-11-16T08:28:58.472Z,10.30
2017-11-16T08:31:26.140Z,10.40
2017-11-16T08:33:53.912Z,10.20
2017-11-16T08:36:21.659Z,11.70
2017-11-16T08:38:50.152Z,11.00
2017-11-16T08:41:17.937Z,10.43
2017-11-16T08:43:45.703Z,10.63
2017-11-16T08:46:13.506Z,11.60
2017-11-16T08:48:41.145Z,12.07
2017-11-16T08:51:09.045Z,13.40
2017-11-16T08:53:36.868Z,13.20
2017-11-16T08:56:04.625Z,11.67
2017-11-16T08:58:32.278Z,11.97
2017-11-16T09:01:00.170Z,12.20
2017-11-16T09:03:28.415Z,12.30
2017-11-16T09:05:56.071Z,14.07
2017-11-16T09:08:24.607Z,13.53
2017-11-16T09:10:52.273Z,12.43
2017-11-16T09:13:19.931Z,13.40
2017-11-16T09:15:47.587Z,12.60
2017-11-16T09:18:16.150Z,11.70
2017-11-16T09:20:43.835Z,12.53
2017-11-16T09:23:11.500Z,13.57
2017-11-16T09:25:39.370Z,12.60
2017-11-16T09:28:07.332Z,13.40
2017-11-16T09:30:36.077Z,13.80
2017-11-16T09:33:04.676Z,12.90
2017-11-16T09:35:32.354Z,13.77
2017-11-16T09:38:00.237Z,13.83
2017-11-16T09:40:28.032Z,14.27
2017-11-16T09:42:55.841Z,12.70
2017-11-16T09:45:23.547Z,12.27
2017-11-16T09:47:51.260Z,12.73
2017-11-16T09:50:18.939Z,11.30
2017-11-16T09:52:46.645Z,9.30
2017-11-16T09:55:14.470Z,11.07
2017-11-16T09:57:42.116Z,12.10
2017-11-16T10:00:09.855Z,11.30
2017-11-16T10:02:38.271Z,12.07
2017-11-16T10:05:05.903Z,9.57
2017-11-16T10:07:33.550Z,12.03
2017-11-16T10:10:01.314Z,12.30
2017-11-16T10:12:29.142Z,12.63
2017-11-16T10:14:56.703Z,13.13
2017-11-16T10:17:24.491Z,12.77
2017-11-16T10:19:52.157Z,14.83
2017-11-16T10:22:19.936Z,12.73
2017-11-16T10:24:47.699Z,12.60
2017-11-16T10:27:15.386Z,11.60
2017-11-16T10:29:43.193Z,12.77
2017-11-16T10:32:10.989Z,13.00
2017-11-16T10:34:38.809Z,17.03
2017-11-16T10:37:06.564Z,16.00
2017-11-16T10:39:34.280Z,16.90
2017-11-16T10:42:02.156Z,16.90
2017-11-16T10:44:29.810Z,16.37
2017-11-16T10:46:57.620Z,17.83
2017-11-16T10:49:25.320Z,15.57
2017-11-16T10:51:53.085Z,15.00
2017-11-16T10:54:20.803Z,15.33
2017-11-16T10:56:49.238Z,13.73
2017-11-16T10:59:16.906Z,13.17
2017-11-16T11:01:44.611Z,13.33
2017-11-16T11:04:12.400Z,13.70
2017-11-16T11:06:40.217Z,11.67
2017-11-16T11:09:07.898Z,12.70
2017-11-16T11:11:36.342Z,12.63
2017-11-16T11:14:04.009Z,14.03
2017-11-16T11:16:32.760Z,12.85
2017-11-16T11:19:00.350Z,11.60
2017-11-16T11:21:28.153Z,12.93
2017-11-16T11:23:55.855Z,14.67
2017-11-16T11:26:23.523Z,13.93
2017-11-16T11:28:51.239Z,12.67
2017-11-16T11:31:19.158Z,14.33
2017-11-16T11:33:47.756Z,13.67
2017-11-16T11:36:15.341Z,13.03
2017-11-16T11:38:43.164Z,12.30
2017-11-16T11:41:10.789Z,15.03
2017-11-16T11:43:39.249Z,13.67
2017-11-16T11:46:07.120Z,13.97
2017-11-16T11:48:34.868Z,13.57
2017-11-16T11:51:02.789Z,13.53
2017-11-16T11:53:30.406Z,13.70
2017-11-16T11:55:58.064Z,13.13
2017-11-16T11:58:25.772Z,13.10
2017-11-16T12:00:54.245Z,12.20
2017-11-16T12:03:22.022Z,13.00
2017-11-16T12:05:50.472Z,13.57
2017-11-16T12:08:18.120Z,16.57
2017-11-16T12:10:45.887Z,17.03
2017-11-16T12:13:13.658Z,18.30
2017-11-16T12:15:41.640Z,16.07
2017-11-16T12:18:09.342Z,16.70
2017-11-16T12:20:37.125Z,16.10
2017-11-16T12:23:04.892Z,17.37
2017-11-16T12:25:33.467Z,11.12
2017-11-16T12:28:01.177Z,15.43
2017-11-16T12:30:28.891Z,17.50
2017-11-16T12:32:56.477Z,13.90
2017-11-16T12:35:24.429Z,13.10
2017-11-16T12:37:52.193Z,13.30
2017-11-16T12:40:19.971Z,12.23
2017-11-16T12:42:47.750Z,12.77
2017-11-16T12:45:15.450Z,12.10
2017-11-16T12:47:43.226Z,12.90
2017-11-16T12:50:11.068Z,12.00
2017-11-16T12:52:38.817Z,11.03
2017-11-16T12:55:06.569Z,12.20
2017-11-16T12:57:34.429Z,12.37
2017-11-16T13:00:02.119Z,13.30
2017-11-16T13:02:29.779Z,13.17
2017-11-16T13:04:57.551Z,11.50
2017-11-16T13:07:25.224Z,13.03
2017-11-16T13:09:53.083Z,12.03
2017-11-16T13:12:20.782Z,14.77
2017-11-16T13:14:48.390Z,13.47
2017-11-16T13:17:16.162Z,12.17
2017-11-16T13:19:43.816Z,13.13
2017-11-16T13:22:11.618Z,13.47
2017-11-16T13:24:40.055Z,15.37
2017-11-16T13:27:08.558Z,13.37
2017-11-16T13:29:36.192Z,14.60
2017-11-16T13:32:03.855Z,13.80
2017-11-16T13:34:31.566Z,16.10
2017-11-16T13:37:00.031Z,14.07
2017-11-16T13:39:27.796Z,15.67
2017-11-16T13:41:55.497Z,15.37
2017-11-16T13:44:23.210Z,14.83
2017-11-16T13:46:50.964Z,16.80
2017-11-16T13:49:18.677Z,15.27
2017-11-16T13:51:47.117Z,14.80
2017-11-16T13:54:14.881Z,18.03
2017-11-16T13:56:42.634Z,15.80
2017-11-16T13:59:10.399Z,15.37
2017-11-16T14:01:38.023Z,16.73
2017-11-16T14:04:05.715Z,15.77
2017-11-16T14:06:33.524Z,14.90
2017-11-16T14:09:01.105Z,16.87
2017-11-16T14:11:29.758Z,16.27
2017-11-16T14:13:57.448Z,17.50
2017-11-16T14:16:25.980Z,16.93
2017-11-16T14:18:53.707Z,17.90
2017-11-16T14:21:22.290Z,19.67
2017-11-16T14:23:50.010Z,18.30
2017-11-16T14:26:17.870Z,14.97
2017-11-16T14:28:45.575Z,16.40
2017-11-16T14:31:13.975Z,19.07
2017-11-16T14:33:41.845Z,21.07
2017-11-16T14:36:09.648Z,20.40
2017-11-16T14:38:37.211Z,23.57
2017-11-16T14:41:06.527Z,20.67
2017-11-16T14:43:34.197Z,22.10
2017-11-16T14:46:01.821Z,22.17
2017-11-16T14:48:29.474Z,23.43
2017-11-16T14:50:57.064Z,21.43
2017-11-16T14:53:24.876Z,21.10
2017-11-16T14:55:52.601Z,26.40
2017-11-16T14:58:20.261Z,26.53
2017-11-16T15:00:48.018Z,24.20
2017-11-16T15:03:15.634Z,23.43
2017-11-16T15:05:44.107Z,26.17
2017-11-16T15:08:11.724Z,25.60
2017-11-16T15:10:39.468Z,24.10
2017-11-16T15:13:07.218Z,23.80
2017-11-16T15:15:34.881Z,23.10
2017-11-16T15:18:02.529Z,24.30
2017-11-16T15:20:31.048Z,27.27
2017-11-16T15:22:58.742Z,24.03
2017-11-16T15:25:26.493Z,27.40
2017-11-16T15:27:54.090Z,27.00
2017-11-16T15:30:21.821Z,31.23
2017-11-16T15:32:49.522Z,29.40
2017-11-16T15:35:18.100Z,28.00
2017-11-16T15:37:46.515Z,28.90
2017-11-16T15:40:14.159Z,23.87
2017-11-16T15:42:42.595Z,28.43
2017-11-16T15:45:10.295Z,26.20
2017-11-16T15:47:38.837Z,26.17
2017-11-16T15:50:06.518Z,27.37
2017-11-16T15:52:34.232Z,25.43
2017-11-16T15:55:01.874Z,27.90
2017-11-16T15:57:29.480Z,27.90
2017-11-16T15:59:57.199Z,31.07
2017-11-16T16:02:24.958Z,30.47
2017-11-16T16:04:52.525Z,22.13
2017-11-16T16:07:20.052Z,30.47
2017-11-16T16:09:47.781Z,29.97
2017-11-16T16:12:15.562Z,26.00
2017-11-16T16:14:43.186Z,30.10
2017-11-16T16:17:10.978Z,29.80
2017-11-16T16:19:38.664Z,29.07
2017-11-16T16:22:06.258Z,27.37
2017-11-16T16:24:34.005Z,29.03
2017-11-16T16:27:02.899Z,31.47
2017-11-16T16:29:31.360Z,29.50
2017-11-16T16:31:58.921Z,28.37
2017-11-16T16:34:26.507Z,29.30
2017-11-16T16:36:54.168Z,26.20
2017-11-16T16:39:22.618Z,26.07
2017-11-16T16:41:50.148Z,27.37
2017-11-16T16:44:17.874Z,26.37
2017-11-16T16:46:45.713Z,25.30
2017-11-16T16:49:13.533Z,29.53
2017-11-16T16:51:41.304Z,25.10
2017-11-16T16:54:10.107Z,27.00
2017-11-16T16:56:37.790Z,25.83
2017-11-16T16:59:05.589Z,30.37
2017-11-16T17:01:34.208Z,28.90
2017-11-16T17:04:01.948Z,26.67
2017-11-16T17:06:30.490Z,23.77
2017-11-16T17:08:58.205Z,28.87
2017-11-16T17:11:25.944Z,25.10
2017-11-16T17:13:53.648Z,28.63
2017-11-16T17:16:21.323Z,29.53
2017-11-16T17:18:49.025Z,29.47
2017-11-16T17:21:16.821Z,27.20
2017-11-16T17:23:44.526Z,31.23
2017-11-16T17:26:12.205Z,27.17
2017-11-16T17:28:40.618Z,28.77
2017-11-16T17:31:08.292Z,30.73
2017-11-16T17:33:36.007Z,33.70
2017-11-16T17:36:03.721Z,32.43
2017-11-16T17:38:32.540Z,31.33
2017-11-16T17:41:00.172Z,24.67
2017-11-16T17:43:27.791Z,29.37
2017-11-16T17:45:55.725Z,33.53
2017-11-16T17:48:23.530Z,29.73
2017-11-16T17:50:51.928Z,41.60
2017-11-16T17:53:19.514Z,34.40
2017-11-16T17:55:48.930Z,34.90
2017-11-16T17:58:16.620Z,32.70
2017-11-16T18:00:44.667Z,33.43
2017-11-16T18:03:12.413Z,34.13
2017-11-16T18:05:40.577Z,31.50
2017-11-16T18:08:09.096Z,37.10
2017-11-16T18:10:36.988Z,33.95
2017-11-16T18:13:04.945Z,35.70
2017-11-16T18:15:32.803Z,34.10
2017-11-16T18:18:00.640Z,33.67
2017-11-16T18:20:28.340Z,33.57
2017-11-16T18:22:56.245Z,32.40
2017-11-16T18:25:24.942Z,39.10
2017-11-16T18:27:52.930Z,35.80
2017-11-16T18:30:20.816Z,43.87
2017-11-16T18:32:48.524Z,36.65
2017-11-16T18:35:16.286Z,39.03
2017-11-16T18:37:44.144Z,36.73
2017-11-16T18:40:11.969Z,38.60
2017-11-16T18:42:41.022Z,35.93
2017-11-16T18:45:10.809Z,34.17
2017-11-16T18:47:38.741Z,38.50
2017-11-16T18:50:06.668Z,38.33
2017-11-16T18:52:34.657Z,34.57
2017-11-16T18:55:02.600Z,37.93
2017-11-16T18:57:30.650Z,39.40
2017-11-16T18:59:58.424Z,39.30
2017-11-16T19:02:26.369Z,42.23
2017-11-16T19:04:54.086Z,33.10
2017-11-16T19:07:22.059Z,37.20
2017-11-16T19:09:50.196Z,42.40
2017-11-16T19:12:18.142Z,39.07
2017-11-16T19:14:46.009Z,37.53
2017-11-16T19:17:13.681Z,38.33
2017-11-16T19:19:41.864Z,38.93
2017-11-16T19:22:09.551Z,36.63
2017-11-16T19:24:37.220Z,39.53
2017-11-16T19:27:04.928Z,36.13
2017-11-16T19:29:33.506Z,36.67
2017-11-16T19:32:01.626Z,35.47
2017-11-16T19:34:29.459Z,42.97
2017-11-16T19:36:57.276Z,39.77
2017-11-16T19:39:24.975Z,39.10
2017-11-16T19:41:52.658Z,36.33
2017-11-16T19:44:20.717Z,36.30
2017-11-16T19:46:48.553Z,37.77
2017-11-16T19:49:16.472Z,35.87
2017-11-16T19:51:44.403Z,38.90
2017-11-16T19:54:12.612Z,36.33
2017-11-16T19:56:40.740Z,38.90
2017-11-16T19:59:08.715Z,37.53
2017-11-16T20:01:36.379Z,37.73
2017-11-16T20:04:04.141Z,37.03
2017-11-16T20:06:32.051Z,36.55
2017-11-16T20:08:59.950Z,40.30
2017-11-16T20:11:27.641Z,35.07
2017-11-16T20:13:55.553Z,39.00
2017-11-16T20:16:23.389Z,36.08
2017-11-16T20:18:51.171Z,38.73
2017-11-16T20:21:19.022Z,34.27
2017-11-16T20:23:47.677Z,31.30
2017-11-16T20:26:15.407Z,35.00
2017-11-16T20:28:43.337Z,38.20
2017-11-16T20:31:11.268Z,37.03
2017-11-16T20:33:39.250Z,34.27
2017-11-16T20:36:07.058Z,37.30
2017-11-16T20:38:38.412Z,33.90
2017-11-16T20:44:13.210Z,37.27
2017-11-16T20:46:46.580Z,38.43
2017-11-16T20:49:35.235Z,33.77
2017-11-16T20:52:10.599Z,33.33
2017-11-16T20:54:38.460Z,36.97
2017-11-16T20:57:06.214Z,38.17
2017-11-16T20:59:33.967Z,36.37
2017-11-16T21:02:01.740Z,39.80
2017-11-16T21:04:29.620Z,36.87
2017-11-16T21:06:57.471Z,39.90
2017-11-16T21:09:25.513Z,37.40
2017-11-16T21:11:53.294Z,39.77
2017-11-16T21:14:21.710Z,38.23
2017-11-16T21:16:49.359Z,38.07
2017-11-16T21:19:17.001Z,33.67
2017-11-16T21:21:45.544Z,34.67
2017-11-16T21:24:13.235Z,35.07
2017-11-16T21:26:40.935Z,38.07
2017-11-16T21:29:08.618Z,33.10
2017-11-16T21:31:36.382Z,36.77
2017-11-16T21:34:04.046Z,36.80
2017-11-16T21:36:31.791Z,35.17
2017-11-16T21:38:59.510Z,27.90
2017-11-16T21:41:27.268Z,34.93
2017-11-16T21:43:54.950Z,36.97
2017-11-16T21:46:22.620Z,32.50
2017-11-16T21:48:50.308Z,32.50
2017-11-16T21:51:18.052Z,31.97
2017-11-16T21:53:45.822Z,35.00
2017-11-16T21:56:13.614Z,33.33
2017-11-16T21:58:41.292Z,37.37
2017-11-16T22:01:09.116Z,33.60
2017-11-16T22:03:36.884Z,35.20
2017-11-16T22:06:05.443Z,31.47
2017-11-16T22:08:33.108Z,30.50
2017-11-16T22:11:00.903Z,37.23
2017-11-16T22:13:28.592Z,33.47
2017-11-16T22:15:56.321Z,27.30
2017-11-16T22:18:23.969Z,34.13
2017-11-16T22:20:51.649Z,32.70
2017-11-16T22:23:19.336Z,36.30
2017-11-16T22:25:46.952Z,29.63
2017-11-16T22:28:15.603Z,20.85
2017-11-16T22:30:43.409Z,17.03
2017-11-16T22:33:11.901Z,7.93
2017-11-16T22:35:40.405Z,8.30
2017-11-16T22:38:08.030Z,7.63
2017-11-16T22:40:35.646Z,7.80
2017-11-16T22:43:03.333Z,6.77
2017-11-16T22:45:31.806Z,5.97
2017-11-16T22:47:59.561Z,6.30
2017-11-16T22:50:27.276Z,6.00
2017-11-16T22:52:55.785Z,6.53
2017-11-16T22:55:23.447Z,5.03
2017-11-16T22:57:50.994Z,6.60
2017-11-16T23:00:19.719Z,5.60
2017-11-16T23:02:47.288Z,4.47
2017-11-16T23:05:17.001Z,5.47
2017-11-16T23:07:44.620Z,6.27
2017-11-16T23:10:12.312Z,5.30
2017-11-16T23:12:39.968Z,5.40
2017-11-16T23:15:07.611Z,5.47
2017-11-16T23:17:35.194Z,6.30
2017-11-16T23:20:02.909Z,5.20
2017-11-16T23:22:30.600Z,5.30
2017-11-16T23:24:58.253Z,5.80
2017-11-16T23:27:26.114Z,5.43
2017-11-16T23:29:53.707Z,5.67
2017-11-16T23:32:21.397Z,5.23
2017-11-16T23:34:49.120Z,5.10
2017-11-16T23:37:16.850Z,6.27
2017-11-16T23:39:44.704Z,6.93
2017-11-16T23:42:12.362Z,5.40
2017-11-16T23:44:39.991Z,4.93
2017-11-16T23:47:07.692Z,5.30
2017-11-16T23:49:35.400Z,4.30
2017-11-16T23:52:03.076Z,5.33
2017-11-16T23:54:30.807Z,5.13
2017-11-16T23:56:59.329Z,5.17
2017-11-16T23:59:27.906Z,4.73
